PWSweather.com
Personal Weather Stations
Station Observations
WISCHPK61
Green Bay Schmitt Park, Green Bay, WI 54311

Green Bay Schmitt ParkGreen Bay, WI 54311

Lat: 44.514277, Lon: -87.935067

Elevation: 735

Station Type: Acu Rite Pro Weather Center model 02032C

http://greenbayweathercam.com

High Low Average
Temperature 39.0°F3.9°C 26.6°F-3.0°C 31.7°F-0.2°C
Dew Point 37.8°F3.2°C 21.5°F-5.8°C 29.8°F-1.2°C
Winds 6.9 mph 11.1 kmh Calm Calm 1.0 mph NW1.6 kmh NW
Wind Gusts 8.1 mph13.0 kmh -- 1.0 mph1.6 kmh
Humidity 99% 54% 94%
Pressure 29.36 in994.2 mb 28.65 in970.2 mb -
Precipitation 0.40 in10.2 mm - -
Hour Temp Dew Point Humidity Winds Wind Gusts Pressure Precip Precip Rate Daily Precip Total
12:00 AM 29.5°F-1.4°C 25.0°F-3.9°C 83% Calm Calm -- 28.68 in971.2 mb - 0.00 in0.0 mm 0.13 in3.3 mm
01:00 AM 29.5°F-1.4°C 29.3°F-1.5°C 99% Calm Calm -- 28.65 in970.2 mb - 0.00 in0.0 mm 0.00 in0.0 mm
02:00 AM 28.9°F-1.7°C 28.7°F-1.8°C 99% Calm Calm -- 28.65 in970.2 mb - 0.00 in0.0 mm 0.00 in0.0 mm
03:00 AM 28.5°F-1.9°C 28.2°F-2.1°C 99% Calm Calm -- 28.65 in970.2 mb - 0.00 in0.0 mm 0.00 in0.0 mm
04:00 AM 28.2°F-2.1°C 28.0°F-2.2°C 99% Calm Calm -- 28.66 in970.5 mb - 0.00 in0.0 mm 0.00 in0.0 mm
05:00 AM 27.9°F-2.3°C 27.7°F-2.4°C 99% Calm Calm -- 28.68 in971.2 mb - 0.00 in0.0 mm 0.00 in0.0 mm
06:00 AM 27.1°F-2.7°C 26.9°F-2.8°C 99% Calm Calm -- 28.73 in972.9 mb - 0.00 in0.0 mm 0.00 in0.0 mm
07:00 AM 26.8°F-2.9°C 21.5°F-5.8°C 80% 1.2 mph NW1.9 kmh NW 2.3 mph3.7 kmh 28.76 in973.9 mb - 0.00 in0.0 mm 0.00 in0.0 mm
08:00 AM 26.6°F-3.0°C 26.4°F-3.1°C 99% Calm Calm -- 28.79 in974.9 mb - 0.00 in0.0 mm 0.00 in0.0 mm
09:00 AM 28.8°F-1.8°C 28.6°F-1.9°C 99% Calm Calm -- 28.83 in976.3 mb - 0.00 in0.0 mm 0.00 in0.0 mm
10:00 AM 31.1°F-0.5°C 30.9°F-0.6°C 99% Calm Calm -- 28.86 in977.3 mb - 0.00 in0.0 mm 0.00 in0.0 mm
11:00 AM 34.6°F1.4°C 34.4°F1.3°C 99% 3.5 mph N5.6 kmh N 4.6 mph7.4 kmh 28.89 in978.3 mb - 0.01 in0.3 mm 0.01 in0.3 mm
12:00 PM 35.3°F1.8°C 35.1°F1.7°C 99% 1.2 mph NW1.9 kmh NW -- 28.93 in979.7 mb - 0.00 in0.0 mm 0.01 in0.3 mm
01:00 PM 38.1°F3.4°C 37.8°F3.2°C 99% 3.5 mph NW5.6 kmh NW 4.6 mph7.4 kmh 28.99 in981.7 mb - 0.01 in0.3 mm 0.02 in0.5 mm
02:00 PM 37.6°F3.1°C 37.3°F2.9°C 99% Calm Calm -- 29.01 in982.4 mb - 0.07 in1.8 mm 0.09 in2.3 mm
03:00 PM 38.1°F3.4°C 22.9°F-5.1°C 54% Calm Calm -- 29.04 in983.4 mb - 0.11 in2.8 mm 0.20 in5.1 mm
04:00 PM 39.0°F3.9°C 28.6°F-1.9°C 66% 2.3 mph NW3.7 kmh NW 5.8 mph9.3 kmh 29.09 in985.1 mb - 0.11 in2.8 mm 0.31 in7.9 mm
05:00 PM 37.4°F3.0°C 27.1°F-2.7°C 66% 6.9 mph NW11.1 kmh NW 8.1 mph13.0 kmh 29.14 in986.8 mb - 0.06 in1.5 mm 0.37 in9.4 mm
06:00 PM 35.1°F1.7°C 34.9°F1.6°C 99% Calm Calm -- 29.18 in988.1 mb - 0.02 in0.5 mm 0.39 in9.9 mm
07:00 PM 33.6°F0.9°C 33.3°F0.7°C 99% 2.3 mph WNW3.7 kmh WNW 4.6 mph7.4 kmh 29.21 in989.2 mb - 0.01 in0.3 mm 0.40 in10.2 mm
08:00 PM 32.2°F0.1°C 32.0°F0.0°C 99% Calm Calm -- 29.25 in990.5 mb - 0.00 in0.0 mm 0.40 in10.2 mm
09:00 PM 31.1°F-0.5°C 30.9°F-0.6°C 99% Calm Calm -- 29.27 in991.2 mb - 0.00 in0.0 mm 0.40 in10.2 mm
10:00 PM 30.0°F-1.1°C 29.8°F-1.2°C 99% Calm Calm -- 29.29 in991.9 mb - 0.00 in0.0 mm 0.40 in10.2 mm
11:00 PM 28.8°F-1.8°C 28.6°F-1.9°C 99% Calm Calm -- 29.33 in993.2 mb - 0.00 in0.0 mm 0.40 in10.2 mm